createdAt,value
2023-11-18T00:00:23.275Z,51.50
2023-11-18T00:03:17.750Z,51.90
2023-11-18T00:06:11.992Z,51.40
2023-11-18T00:09:06.540Z,51.30
2023-11-18T00:12:00.766Z,51.50
2023-11-18T00:14:55.012Z,51.50
2023-11-18T00:17:49.243Z,51.70
2023-11-18T00:20:43.472Z,51.70
2023-11-18T00:23:38.411Z,50.90
2023-11-18T00:26:32.582Z,51.30
2023-11-18T00:29:27.810Z,51.50
2023-11-18T00:32:22.435Z,51.00
2023-11-18T00:35:17.015Z,51.60
2023-11-18T00:38:12.416Z,51.60
2023-11-18T00:41:08.987Z,51.80
2023-11-18T00:44:03.227Z,52.10
2023-11-18T00:46:59.895Z,52.70
2023-11-18T00:49:57.097Z,53.30
2023-11-18T00:52:52.054Z,53.80
2023-11-18T00:55:46.684Z,53.50
2023-11-18T00:58:42.575Z,54.10
2023-11-18T01:01:36.925Z,53.90
2023-11-18T01:04:31.237Z,54.10
2023-11-18T01:07:25.970Z,54.50
2023-11-18T01:10:21.730Z,54.10
2023-11-18T01:13:16.467Z,53.80
2023-11-18T01:16:11.718Z,53.70
2023-11-18T01:19:06.457Z,53.80
2023-11-18T01:22:01.233Z,53.80
2023-11-18T01:24:55.959Z,53.80
2023-11-18T01:27:50.669Z,54.00
2023-11-18T01:30:47.238Z,54.00
2023-11-18T01:33:46.048Z,54.00
2023-11-18T01:36:40.670Z,54.40
2023-11-18T01:39:35.342Z,53.90
2023-11-18T01:42:30.053Z,53.90
2023-11-18T01:45:24.789Z,53.70
2023-11-18T01:48:19.950Z,53.70
2023-11-18T01:51:15.175Z,52.20
2023-11-18T01:54:17.526Z,53.00
2023-11-18T01:57:12.919Z,53.00
2023-11-18T02:00:08.889Z,53.20
2023-11-18T02:03:03.838Z,53.00
2023-11-18T02:05:59.578Z,52.60
2023-11-18T02:08:54.402Z,52.30
2023-11-18T02:12:04.126Z,52.30
2023-11-18T02:15:03.353Z,52.40
2023-11-18T02:18:00.419Z,52.60
2023-11-18T02:20:56.000Z,52.10
2023-11-18T02:23:52.193Z,52.40
2023-11-18T02:26:48.356Z,52.50
2023-11-18T02:29:50.267Z,52.40
2023-11-18T02:32:58.718Z,52.00
2023-11-18T02:36:08.155Z,51.50
2023-11-18T02:39:05.351Z,50.60
2023-11-18T02:42:04.352Z,47.40
2023-11-18T02:45:01.884Z,47.40
2023-11-18T02:47:59.915Z,47.60
2023-11-18T02:50:54.677Z,47.30
2023-11-18T02:53:49.327Z,47.10
2023-11-18T02:56:44.139Z,46.80
2023-11-18T02:59:38.857Z,46.90
2023-11-18T03:02:34.140Z,46.10
2023-11-18T03:05:28.941Z,46.20
2023-11-18T03:08:23.655Z,46.40
2023-11-18T03:11:18.432Z,45.70
2023-11-18T03:14:13.479Z,45.90
2023-11-18T03:17:12.405Z,45.90
2023-11-18T03:20:14.476Z,45.20
2023-11-18T03:23:11.619Z,45.00
2023-11-18T03:26:08.061Z,44.00
2023-11-18T03:29:03.159Z,43.00
2023-11-18T03:31:58.356Z,42.30
2023-11-18T03:34:53.078Z,42.10
2023-11-18T03:37:47.850Z,42.30
2023-11-18T03:40:43.918Z,42.20
2023-11-18T03:43:40.286Z,41.60
2023-11-18T03:46:36.958Z,40.50
2023-11-18T03:49:31.685Z,39.00
2023-11-18T03:52:26.984Z,39.30
2023-11-18T03:55:22.096Z,39.20
2023-11-18T03:58:16.852Z,39.40
2023-11-18T04:01:13.712Z,40.00
2023-11-18T04:04:08.536Z,40.00
2023-11-18T04:07:06.440Z,40.30
2023-11-18T04:10:02.656Z,38.90
2023-11-18T04:12:57.404Z,38.50
2023-11-18T04:15:52.064Z,39.60
2023-11-18T04:18:48.451Z,39.10
2023-11-18T04:21:43.171Z,38.70
2023-11-18T04:24:38.422Z,38.40
2023-11-18T04:27:33.045Z,37.90
2023-11-18T04:30:28.145Z,38.50
2023-11-18T04:33:22.784Z,37.90
2023-11-18T04:36:18.733Z,37.70
2023-11-18T04:39:18.225Z,37.90
2023-11-18T04:42:12.901Z,36.90
2023-11-18T04:45:07.932Z,36.00
2023-11-18T04:48:02.789Z,35.20
2023-11-18T04:50:57.486Z,36.20
2023-11-18T04:53:52.294Z,40.70
2023-11-18T04:56:47.001Z,43.60
2023-11-18T04:59:41.772Z,45.20
2023-11-18T05:02:36.957Z,46.40
2023-11-18T05:05:31.665Z,46.70
2023-11-18T05:08:26.414Z,47.30
2023-11-18T05:11:21.241Z,47.40
2023-11-18T05:14:16.641Z,47.50
2023-11-18T05:17:11.429Z,47.90
2023-11-18T05:20:07.490Z,48.20
2023-11-18T05:23:02.582Z,47.00
2023-11-18T05:25:58.383Z,46.80
2023-11-18T05:28:53.504Z,46.90
2023-11-18T05:31:48.431Z,45.40
2023-11-18T05:34:43.486Z,43.90
2023-11-18T05:37:40.487Z,43.20
2023-11-18T05:40:37.320Z,43.90
2023-11-18T05:43:43.147Z,43.40
2023-11-18T05:46:38.425Z,42.60
2023-11-18T05:49:33.197Z,43.00
2023-11-18T05:52:27.940Z,40.90
2023-11-18T05:55:23.070Z,41.50
2023-11-18T05:58:17.738Z,40.60
2023-11-18T06:01:14.294Z,40.70
2023-11-18T06:04:11.060Z,40.30
2023-11-18T06:07:05.794Z,40.70
2023-11-18T06:10:00.535Z,40.60
2023-11-18T06:12:55.734Z,40.90
2023-11-18T06:15:52.353Z,40.90
2023-11-18T06:18:47.801Z,40.10
2023-11-18T06:21:43.138Z,41.00
2023-11-18T06:24:37.897Z,41.90
2023-11-18T06:27:32.848Z,40.20
2023-11-18T06:30:28.720Z,40.20
2023-11-18T06:33:25.432Z,39.90
2023-11-18T06:36:28.817Z,41.30
2023-11-18T06:39:30.283Z,40.90
2023-11-18T06:42:26.118Z,41.30
2023-11-18T06:45:20.836Z,41.20
2023-11-18T06:48:17.274Z,41.30
2023-11-18T06:51:11.987Z,41.60
2023-11-18T06:54:12.650Z,41.60
2023-11-18T06:57:07.434Z,40.40
2023-11-18T07:00:02.213Z,39.40
2023-11-18T07:02:57.059Z,39.30
2023-11-18T07:05:51.830Z,39.50
2023-11-18T07:08:46.873Z,38.30
2023-11-18T07:11:43.428Z,38.10
2023-11-18T07:14:38.121Z,38.30
2023-11-18T07:17:32.958Z,37.90
2023-11-18T07:20:27.656Z,36.80
2023-11-18T07:23:23.159Z,37.60
2023-11-18T07:26:18.012Z,38.40
2023-11-18T07:29:12.791Z,38.10
2023-11-18T07:32:12.427Z,38.20
2023-11-18T07:35:11.346Z,38.80
2023-11-18T07:38:06.764Z,39.60
2023-11-18T07:41:01.650Z,39.80
2023-11-18T07:43:58.433Z,39.50
2023-11-18T07:46:53.176Z,39.70
2023-11-18T07:49:48.282Z,39.70
2023-11-18T07:52:43.702Z,39.90
2023-11-18T07:55:41.962Z,40.40
2023-11-18T07:58:39.805Z,39.90
2023-11-18T08:01:36.061Z,39.40
2023-11-18T08:04:30.799Z,39.50
2023-11-18T08:07:25.450Z,39.60
2023-11-18T08:10:21.236Z,40.30
2023-11-18T08:13:16.055Z,40.70
2023-11-18T08:16:11.296Z,40.80
2023-11-18T08:19:08.395Z,40.60
2023-11-18T08:22:02.500Z,40.60
2023-11-18T08:24:57.189Z,40.80
2023-11-18T08:27:51.677Z,41.10
2023-11-18T08:30:45.965Z,41.20
2023-11-18T08:33:40.424Z,41.30
2023-11-18T08:36:36.164Z,41.40
2023-11-18T08:39:31.387Z,41.60
2023-11-18T08:42:26.719Z,41.80
2023-11-18T08:45:31.750Z,41.80
2023-11-18T08:48:26.094Z,41.80
2023-11-18T08:51:20.332Z,42.10
2023-11-18T08:54:27.912Z,42.30
2023-11-18T08:57:27.681Z,42.40
2023-11-18T09:00:40.919Z,42.50
2023-11-18T09:03:38.616Z,42.80
2023-11-18T09:06:36.136Z,43.10
2023-11-18T09:09:30.446Z,43.40
2023-11-18T09:12:24.696Z,43.50
2023-11-18T09:15:24.665Z,43.80
2023-11-18T09:18:20.569Z,44.00
2023-11-18T09:21:21.597Z,44.50
2023-11-18T09:24:16.405Z,44.80
2023-11-18T09:27:11.657Z,45.20
2023-11-18T09:30:09.486Z,45.60
2023-11-18T09:33:05.021Z,46.20
2023-11-18T09:36:02.718Z,46.80
2023-11-18T09:38:56.946Z,47.30
2023-11-18T09:41:51.808Z,47.50
2023-11-18T09:44:46.300Z,47.80
2023-11-18T09:47:44.474Z,48.00
2023-11-18T09:50:40.540Z,48.30
2023-11-18T09:53:39.432Z,48.40
2023-11-18T09:56:59.297Z,48.60
2023-11-18T09:59:57.089Z,48.90
2023-11-18T10:02:53.306Z,49.00
2023-11-18T10:05:49.294Z,49.00
2023-11-18T10:08:48.099Z,49.00
2023-11-18T10:11:43.644Z,49.00
2023-11-18T10:14:48.149Z,49.00
2023-11-18T10:18:04.936Z,49.20
2023-11-18T10:21:02.029Z,49.30
2023-11-18T10:24:03.594Z,49.40
2023-11-18T10:27:00.717Z,49.20
2023-11-18T10:30:21.236Z,49.60
2023-11-18T10:33:18.741Z,48.70
2023-11-18T10:36:27.365Z,48.50
2023-11-18T10:39:25.511Z,48.00
2023-11-18T10:42:20.566Z,48.10
2023-11-18T10:45:15.213Z,48.00
2023-11-18T10:48:09.896Z,47.90
2023-11-18T10:51:04.185Z,48.00
2023-11-18T10:54:03.479Z,48.10
2023-11-18T10:57:00.727Z,48.10
2023-11-18T11:00:21.559Z,48.10
2023-11-18T11:03:16.619Z,48.30
2023-11-18T11:06:21.959Z,48.00
2023-11-18T11:09:19.180Z,47.60
2023-11-18T11:12:17.336Z,47.60
2023-11-18T11:15:23.728Z,47.20
2023-11-18T11:18:25.417Z,46.90
2023-11-18T11:21:32.260Z,46.70
2023-11-18T11:25:05.863Z,46.70
2023-11-18T11:28:13.326Z,46.50
2023-11-18T11:31:41.189Z,47.10
2023-11-18T11:34:38.142Z,46.20
2023-11-18T11:37:37.072Z,46.40
2023-11-18T11:40:32.988Z,46.60
2023-11-18T11:43:30.255Z,46.80
2023-11-18T11:46:25.559Z,47.10
2023-11-18T11:49:39.949Z,47.20
2023-11-18T11:52:39.889Z,47.40
2023-11-18T11:55:39.635Z,47.60
2023-11-18T11:58:38.982Z,47.90
2023-11-18T12:01:39.853Z,47.60
2023-11-18T12:04:34.905Z,47.80
2023-11-18T12:07:30.259Z,48.00
2023-11-18T12:10:33.992Z,48.40
2023-11-18T12:13:28.634Z,47.90
2023-11-18T12:16:23.349Z,47.70
2023-11-18T12:20:00.576Z,47.50
2023-11-18T12:23:17.776Z,47.40
2023-11-18T12:26:52.341Z,47.50
2023-11-18T12:29:46.690Z,47.40
2023-11-18T12:33:03.677Z,47.40
2023-11-18T12:36:33.262Z,47.60
2023-11-18T12:40:01.721Z,47.60
2023-11-18T12:43:02.842Z,47.70
2023-11-18T12:46:31.442Z,47.80
2023-11-18T12:49:26.970Z,47.80
2023-11-18T12:52:23.674Z,48.10
2023-11-18T12:55:21.409Z,48.30
2023-11-18T12:58:15.840Z,48.50
2023-11-18T13:01:10.117Z,48.80
2023-11-18T13:04:05.161Z,48.90
2023-11-18T13:07:00.503Z,48.90
2023-11-18T13:09:56.674Z,48.60
2023-11-18T13:12:52.288Z,48.60
2023-11-18T13:15:47.173Z,48.60
2023-11-18T13:18:52.111Z,48.80
2023-11-18T13:21:46.507Z,49.20
2023-11-18T13:24:43.039Z,50.00
2023-11-18T13:27:38.333Z,49.30
2023-11-18T13:30:32.603Z,49.10
2023-11-18T13:33:27.202Z,49.20
2023-11-18T13:36:23.404Z,49.30
2023-11-18T13:39:24.514Z,49.70
2023-11-18T13:42:26.175Z,49.70
2023-11-18T13:45:33.341Z,49.90
2023-11-18T13:48:31.185Z,49.90
2023-11-18T13:51:27.076Z,50.10
2023-11-18T13:54:21.349Z,50.00
2023-11-18T13:57:16.094Z,50.10
2023-11-18T14:00:17.333Z,50.30
2023-11-18T14:03:14.209Z,50.60
2023-11-18T14:06:12.870Z,50.70
2023-11-18T14:09:07.235Z,50.60
2023-11-18T14:12:01.546Z,50.70
2023-11-18T14:14:55.918Z,50.70
2023-11-18T14:17:51.980Z,51.00
2023-11-18T14:20:46.303Z,51.20
2023-11-18T14:23:40.630Z,51.40
2023-11-18T14:26:35.304Z,51.40
2023-11-18T14:29:30.518Z,51.50
2023-11-18T14:32:24.921Z,51.40
2023-11-18T14:35:19.514Z,51.40
2023-11-18T14:38:15.194Z,51.60
2023-11-18T14:41:10.156Z,51.90
2023-11-18T14:44:06.576Z,52.30
2023-11-18T14:47:02.425Z,52.40
2023-11-18T14:49:56.738Z,52.30
2023-11-18T14:52:53.940Z,52.30
2023-11-18T14:55:48.298Z,52.30
2023-11-18T14:58:42.671Z,52.30
2023-11-18T15:01:37.150Z,52.40
2023-11-18T15:04:31.592Z,52.50
2023-11-18T15:07:25.866Z,52.70
2023-11-18T15:10:25.578Z,52.70
2023-11-18T15:13:20.471Z,52.40
2023-11-18T15:16:14.786Z,52.10
2023-11-18T15:19:09.073Z,51.90
2023-11-18T15:22:04.053Z,51.60
2023-11-18T15:25:01.853Z,51.60
2023-11-18T15:27:58.361Z,51.60
2023-11-18T15:30:52.747Z,51.90
2023-11-18T15:33:50.028Z,52.20
2023-11-18T15:36:45.208Z,52.40
2023-11-18T15:39:39.474Z,52.50
2023-11-18T15:42:35.532Z,52.60
2023-11-18T15:45:30.714Z,52.80
2023-11-18T15:48:25.058Z,53.00
2023-11-18T15:51:22.179Z,53.10
2023-11-18T15:54:17.814Z,53.30
2023-11-18T15:57:12.096Z,53.40
2023-11-18T16:00:08.406Z,53.60
2023-11-18T16:03:03.692Z,53.80
2023-11-18T16:05:58.024Z,53.90
2023-11-18T16:08:52.282Z,54.00
2023-11-18T16:11:46.515Z,54.10
2023-11-18T16:14:40.813Z,54.40
2023-11-18T16:17:35.371Z,54.50
2023-11-18T16:20:34.999Z,54.60
2023-11-18T16:23:32.200Z,54.90
2023-11-18T16:26:26.554Z,55.10
2023-11-18T16:29:20.947Z,55.40
2023-11-18T16:32:15.293Z,55.50
2023-11-18T16:35:14.305Z,55.50
2023-11-18T16:38:10.024Z,55.60
2023-11-18T16:41:04.671Z,55.60
2023-11-18T16:43:59.076Z,55.70
2023-11-18T16:46:54.340Z,55.80
2023-11-18T16:50:00.588Z,55.90
2023-11-18T16:52:58.422Z,55.90
2023-11-18T16:55:52.764Z,56.00
2023-11-18T16:58:47.069Z,56.10
2023-11-18T17:01:41.328Z,56.10
2023-11-18T17:04:35.853Z,56.20
2023-11-18T17:07:30.135Z,56.10
2023-11-18T17:10:25.114Z,56.80
2023-11-18T17:13:19.360Z,56.20
2023-11-18T17:16:14.619Z,56.20
2023-11-18T17:19:11.253Z,56.30
2023-11-18T17:22:06.799Z,56.30
2023-11-18T17:25:00.955Z,56.40
2023-11-18T17:27:57.839Z,56.40
2023-11-18T17:30:53.145Z,56.30
2023-11-18T17:33:48.784Z,56.40
2023-11-18T17:36:43.301Z,56.50
2023-11-18T17:39:37.704Z,56.50
2023-11-18T17:42:33.087Z,56.60
2023-11-18T17:45:27.437Z,56.70
2023-11-18T17:48:22.253Z,56.90
2023-11-18T17:51:17.012Z,56.90
2023-11-18T17:54:11.237Z,57.50
2023-11-18T17:57:05.906Z,57.60
2023-11-18T18:00:00.316Z,57.10
2023-11-18T18:02:55.032Z,57.70
2023-11-18T18:05:49.231Z,57.10
2023-11-18T18:08:43.591Z,57.20
2023-11-18T18:11:37.839Z,57.30
2023-11-18T18:14:32.194Z,57.20
2023-11-18T18:17:26.763Z,57.20
2023-11-18T18:20:22.729Z,57.30
2023-11-18T18:23:18.166Z,57.30
2023-11-18T18:26:12.634Z,57.30
2023-11-18T18:29:07.856Z,57.40
2023-11-18T18:32:02.229Z,57.50
2023-11-18T18:34:56.430Z,57.60
2023-11-18T18:37:50.930Z,57.70
2023-11-18T18:40:45.253Z,58.00
2023-11-18T18:43:39.528Z,57.80
2023-11-18T18:46:33.856Z,57.90
2023-11-18T18:49:28.690Z,58.10
2023-11-18T18:52:22.941Z,58.10
2023-11-18T18:55:19.755Z,58.40
2023-11-18T18:58:14.037Z,58.50
2023-11-18T19:01:14.836Z,58.60
2023-11-18T19:04:10.281Z,58.50
2023-11-18T19:07:04.679Z,58.60
2023-11-18T19:09:59.334Z,58.50
2023-11-18T19:12:55.712Z,58.80
2023-11-18T19:15:53.342Z,58.90
2023-11-18T19:18:48.648Z,59.30
2023-11-18T19:21:43.087Z,59.60
2023-11-18T19:24:37.629Z,59.70
2023-11-18T19:27:33.188Z,60.40
2023-11-18T19:30:28.552Z,60.00
2023-11-18T19:33:23.718Z,60.30
2023-11-18T19:36:18.053Z,60.60
2023-11-18T19:39:12.382Z,60.80
2023-11-18T19:42:07.470Z,60.90
2023-11-18T19:45:01.969Z,61.40
2023-11-18T19:47:56.401Z,61.70
2023-11-18T19:50:50.839Z,62.00
2023-11-18T19:53:45.706Z,62.30
2023-11-18T19:56:40.924Z,62.20
2023-11-18T19:59:35.323Z,62.30
2023-11-18T20:02:29.624Z,62.40
2023-11-18T20:05:24.178Z,62.60
2023-11-18T20:08:19.544Z,62.80
2023-11-18T20:11:14.362Z,62.90
2023-11-18T20:14:08.597Z,63.00
2023-11-18T20:17:03.426Z,63.10
2023-11-18T20:19:57.715Z,63.10
2023-11-18T20:22:55.668Z,63.30
2023-11-18T20:25:50.318Z,63.50
2023-11-18T20:28:44.577Z,63.90
2023-11-18T20:31:39.178Z,64.10
2023-11-18T20:34:33.890Z,64.40
2023-11-18T20:37:28.509Z,64.50
2023-11-18T20:40:25.641Z,64.70
2023-11-18T20:43:19.931Z,64.70
2023-11-18T20:46:14.451Z,64.70
2023-11-18T20:49:08.759Z,65.00
2023-11-18T20:52:03.000Z,66.00
2023-11-18T20:54:57.390Z,65.30
2023-11-18T20:57:51.624Z,65.40
2023-11-18T21:00:45.916Z,65.60
2023-11-18T21:03:40.383Z,65.70
2023-11-18T21:06:35.000Z,65.30
2023-11-18T21:09:29.286Z,65.10
2023-11-18T21:12:24.067Z,64.70
2023-11-18T21:15:18.505Z,64.40
2023-11-18T21:18:14.688Z,64.30
2023-11-18T21:21:09.107Z,64.40
2023-11-18T21:24:05.394Z,64.10
2023-11-18T21:26:59.649Z,64.20
2023-11-18T21:29:53.855Z,64.30
2023-11-18T21:32:48.516Z,64.40
2023-11-18T21:35:42.805Z,64.10
2023-11-18T21:38:37.124Z,63.70
2023-11-18T21:41:31.425Z,63.40
2023-11-18T21:44:25.686Z,63.00
2023-11-18T21:47:20.025Z,62.70
2023-11-18T21:50:17.566Z,62.40
2023-11-18T21:53:11.859Z,62.20
2023-11-18T21:56:07.748Z,62.40
2023-11-18T21:59:02.548Z,61.80
2023-11-18T22:01:59.760Z,60.90
2023-11-18T22:04:53.492Z,60.10
2023-11-18T22:07:48.269Z,59.80
2023-11-18T22:10:42.578Z,59.00
2023-11-18T22:13:37.525Z,57.80
2023-11-18T22:16:31.850Z,56.10
2023-11-18T22:19:28.747Z,55.20
2023-11-18T22:22:23.377Z,54.00
2023-11-18T22:25:17.781Z,53.30
2023-11-18T22:28:13.540Z,52.70
2023-11-18T22:31:09.248Z,51.80
2023-11-18T22:34:03.486Z,51.20
2023-11-18T22:36:57.781Z,50.90
2023-11-18T22:39:52.113Z,50.80
2023-11-18T22:42:49.368Z,50.90
2023-11-18T22:45:43.642Z,51.10
2023-11-18T22:48:37.988Z,50.50
2023-11-18T22:51:32.571Z,50.60
2023-11-18T22:54:27.091Z,50.90
2023-11-18T22:57:21.674Z,50.90
2023-11-18T23:00:35.357Z,49.00
2023-11-18T23:03:35.842Z,49.70
2023-11-18T23:06:31.478Z,49.30
2023-11-18T23:09:27.187Z,49.20
2023-11-18T23:12:21.708Z,49.40
2023-11-18T23:15:16.077Z,49.30
2023-11-18T23:18:11.790Z,49.30
2023-11-18T23:21:06.172Z,48.90
2023-11-18T23:24:00.444Z,49.00
2023-11-18T23:26:54.679Z,48.20
2023-11-18T23:29:48.913Z,48.10
2023-11-18T23:32:44.744Z,47.40
2023-11-18T23:35:41.670Z,47.50
2023-11-18T23:38:36.457Z,47.20
2023-11-18T23:41:31.049Z,47.50
2023-11-18T23:44:26.457Z,47.20
2023-11-18T23:47:20.805Z,47.20
2023-11-18T23:50:15.141Z,47.20
2023-11-18T23:53:12.352Z,46.90
2023-11-18T23:56:08.254Z,46.20
2023-11-18T23:59:02.596Z,46.20
